Latest Weather Observations for Cabramurra

IDN60901

Issued at 8:21 am EST Monday 3 August 2015 (issued every 10 minutes, with the page automatically refreshed every 10 minutes)

About weather observations | Map of Canberra area stations | Latest observations for Canberra area | Other Formats
Station Details ID: 072161 Name: CABRAMURRA SMHEA AWS Lat: -35.94 Lon: 148.38 Height: 1482.4 m
Data from the previous 72 hours. | See also: Recent months at Cabramurra
Date/Time
EST
Tmp

°C
App
Tmp
°C
Dew
Point
°C
Rel
Hum
%
Delta-T

°C
Wind Press
QNH
hPa
Press
MSL
hPa
Rain
since
9 am
mm
Dir
 
Spd
km/h
Gust
km/h
Spd
kts
Gust
kts
03/08:12am -1.4 -10.6 -1.5 99 0.0 NNE 37 59 20 32 - - 14.0
03/08:00am -1.4 -9.9 -1.5 99 0.0 NNE 33 50 18 27 - - 14.0
03/07:58am -1.4 -9.7 -1.5 99 0.0 NNE 32 50 17 27 - - 14.0
03/07:30am -1.1 -9.5 -1.2 99 0.0 NNE 33 44 18 24 - - 13.8
03/07:00am -1.2 -10.0 -1.3 99 0.0 NNE 35 48 19 26 - - 13.8
03/06:47am -1.2 -9.4 -1.3 99 0.0 NNE 32 63 17 34 - - 13.8
03/06:30am -1.4 -9.9 -1.5 99 0.0 NNE 33 48 18 26 - - 13.6
03/05:38am -0.9 -10.4 -1.0 99 0.0 NNE 39 57 21 31 - - 13.6
03/05:30am -0.8 -9.9 -0.9 99 0.0 NNE 37 52 20 28 - - 13.6
03/05:01am -0.8 -8.6 -0.9 99 0.0 NNE 30 54 16 29 - - 13.6
03/05:00am -0.8 -8.2 -0.9 99 0.0 NNE 28 43 15 23 - - 13.6
03/04:32am -1.0 -9.8 -1.1 99 0.0 NNE 35 54 19 29 - - 13.2
03/04:30am -1.0 -10.2 -1.1 99 0.0 NNE 37 54 20 29 - - 13.2
03/04:09am -0.8 -9.2 -0.9 99 0.0 NNE 33 52 18 28 - - 13.0
03/04:00am -0.9 -9.3 -1.0 99 0.0 NNE 33 46 18 25 - - 12.8
03/03:30am -1.0 -10.2 -1.1 99 0.0 NNE 37 56 20 30 - - 12.8
03/03:00am -0.8 -11.7 -0.9 99 0.0 NNE 46 67 25 36 - - 12.8
03/02:30am -0.5 -9.2 -0.6 99 0.0 NNE 35 56 19 30 - - 12.0
03/02:00am -0.4 -9.9 -0.5 99 0.0 NNE 39 59 21 32 - - 11.4
03/01:30am -0.5 -10.0 -0.6 99 0.0 NNE 39 57 21 31 - - 11.0
03/01:00am -0.4 -9.5 -0.5 99 0.0 NNE 37 59 20 32 - - 10.6
03/12:30am -0.6 -10.9 -0.7 99 0.0 NNE 43 67 23 36 - - 10.6
 
Date/Time
EST
Tmp

°C
App
Tmp
°C
Dew
Point
°C
Rel
Hum
%
Delta-T

°C
Wind Press
QNH
hPa
Press
MSL
hPa
Rain
since
9 am
mm
Dir
 
Spd
km/h
Gust
km/h
Spd
kts
Gust
kts
02/11:30pm -0.8 -9.6 -0.9 99 0.0 NNE 35 54 19 29 - - 10.4
02/11:00pm -1.0 -9.8 -1.1 99 0.0 NNE 35 54 19 29 - - 10.2
02/10:33pm -1.2 -9.6 -1.3 99 0.0 NNE 33 52 18 28 - - 10.2
02/10:30pm -1.2 -10.0 -1.3 99 0.0 NNE 35 52 19 28 - - 10.2
02/10:16pm -1.3 -10.5 -1.4 99 0.0 NNE 37 56 20 30 - - 10.2
02/10:00pm -1.3 -10.1 -1.4 99 0.0 NNE 35 50 19 27 - - 10.2
02/09:41pm -1.4 -9.9 -1.5 99 0.0 NNE 33 52 18 28 - - 10.2
02/09:30pm -1.5 -9.4 -1.6 99 0.0 NNE 30 46 16 25 - - 10.2
02/09:12pm -1.6 -10.1 -1.7 99 0.0 NNE 33 52 18 28 - - 10.2
02/09:00pm -1.6 -9.9 -1.7 99 0.0 NNE 32 44 17 24 - - 10.2
02/08:30pm -1.6 -9.9 -1.7 99 0.0 NNE 32 46 17 25 - - 10.2
02/08:15pm -1.7 -10.2 -1.8 99 0.0 NNE 33 52 18 28 - - 10.2
02/08:00pm -1.7 -11.0 -1.8 99 0.0 NNE 37 50 20 27 - - 10.2
02/07:44pm -1.6 -11.2 -1.7 99 0.0 NNE 39 57 21 31 - - 10.2
02/07:30pm -1.7 -11.3 -1.8 99 0.0 NNE 39 56 21 30 - - 10.2
02/07:06pm -1.5 -9.8 -1.6 99 0.0 NNE 32 50 17 27 - - 10.2
02/07:00pm -1.5 -9.8 -1.6 99 0.0 NNE 32 43 17 23 - - 10.2
02/06:33pm -1.3 -9.6 -1.4 99 0.0 NNE 32 50 17 27 - - 10.2
02/06:30pm -1.4 -9.9 -1.5 99 0.0 NNE 33 50 18 27 - - 10.2
02/05:45pm -0.7 -8.5 -0.8 99 0.0 NNE 30 48 16 26 - - 10.2
02/05:30pm -0.8 -9.0 -0.9 99 0.0 NNE 32 43 17 23 - - 10.2
02/05:00pm -0.8 -7.5 -0.9 99 0.0 NNE 24 39 13 21 - - 10.2
02/04:36pm -0.5 -8.6 -0.6 99 0.0 WNW 32 48 17 26 - - 10.2
02/04:30pm -0.3 -8.4 -0.4 99 0.0 NW 32 46 17 25 - - 10.2
02/04:00pm -0.3 -7.3 -0.4 99 0.0 WNW 26 41 14 22 - - 10.2
02/03:44pm 0.1 -6.8 0.0 99 0.0 W 26 48 14 26 - - 10.2
02/03:30pm 0.4 -6.5 0.3 99 0.0 WNW 26 37 14 20 - - 10.2
02/03:08pm 0.7 -6.5 0.6 99 0.0 WNW 28 46 15 25 - - 10.2
02/03:00pm 0.9 -7.0 0.8 99 0.0 WNW 32 46 17 25 - - 10.2
02/02:51pm 1.0 -7.1 0.9 99 0.0 W 33 54 18 29 - - 10.2
02/02:50pm 1.0 -7.1 0.9 99 0.0 W 33 54 18 29 - - 10.2
02/02:30pm 1.6 -5.1 1.5 99 0.0 WNW 26 50 14 27 - - 10.2
02/02:29pm 1.5 -5.2 1.4 99 0.0 W 26 50 14 27 - - 10.2
02/02:28pm 1.5 -4.8 1.4 99 0.0 W 24 39 13 21 - - 10.2
02/02:00pm 1.7 -7.8 1.6 99 0.0 W 41 65 22 35 - - 8.4
02/01:57pm 1.7 -7.4 1.6 99 0.0 W 39 63 21 34 - - 8.4
02/01:53pm 1.7 -7.4 1.6 99 0.0 WNW 39 67 21 36 - - 8.4
02/01:49pm 1.8 -6.6 1.7 99 0.0 WNW 35 67 19 36 - - 8.4
02/01:48pm 1.8 -6.2 1.7 99 0.0 WNW 33 67 18 36 - - 8.4
02/01:45pm 1.8 -6.0 1.7 99 0.0 WNW 32 65 17 35 - - 8.4
02/01:39pm 1.9 -6.5 1.8 99 0.0 WNW 35 61 19 33 - - 8.4
02/01:38pm 1.8 -7.3 1.7 99 0.0 WNW 39 67 21 36 - - 8.4
02/01:30pm 2.0 -6.7 1.9 99 0.0 W 37 67 20 36 - - 8.4
02/01:29pm 2.1 -6.2 2.0 99 0.0 W 35 67 19 36 - - 8.2
02/01:26pm 2.2 -5.5 2.1 99 0.0 WNW 32 50 17 27 - - 8.0
02/01:16pm 2.5 -5.8 2.4 99 0.0 NW 35 59 19 32 - - 8.0
02/01:12pm 2.4 -6.6 2.3 99 0.0 WNW 39 59 21 32 - - 8.0
02/01:09pm 2.5 -6.5 2.4 99 0.0 W 39 61 21 33 - - 8.0
02/01:08pm 2.5 -6.5 2.4 99 0.0 W 39 61 21 33 - - 8.0
02/01:01pm 2.7 -5.9 2.6 99 0.0 NW 37 61 20 33 - - 7.8
02/01:00pm 2.7 -5.9 2.6 99 0.0 NW 37 52 20 28 - - 7.8
02/12:59pm 2.7 -5.5 2.6 99 0.0 NW 35 52 19 28 - - 7.6
02/12:45pm 2.9 -6.8 2.8 99 0.0 WNW 43 63 23 34 - - 6.6
02/12:43pm 2.9 -6.4 2.8 99 0.0 WNW 41 63 22 34 - - 6.4
02/12:35pm 3.0 -5.5 2.9 99 0.0 WNW 37 65 20 35 - - 5.8
02/12:33pm 3.0 -5.5 2.9 99 0.0 WNW 37 65 20 35 - - 5.6
02/12:30pm 3.0 -5.5 2.9 99 0.0 NW 37 65 20 35 - - 5.2
02/12:02pm 3.4 -4.7 3.4 100 0.0 NNW 35 54 19 29 - - 2.8
02/12:00pm 3.4 -5.4 3.4 100 0.0 NNW 39 56 21 30 - - 2.8
02/11:30am 3.6 -5.2 3.6 100 0.0 NNW 39 57 21 31 - - 2.4
02/11:00am 3.7 -6.4 3.6 99 0.0 NW 46 72 25 39 - - 2.0
02/10:41am 4.0 -5.1 4.0 100 0.0 NW 41 76 22 41 - - 1.2
02/10:33am 4.1 -3.5 4.1 100 0.0 NNW 33 54 18 29 - - 1.2
02/10:30am 4.1 -3.3 4.0 99 0.0 NW 32 44 17 24 - - 1.0
02/10:05am 4.1 -3.5 4.1 100 0.0 NNW 33 52 18 28 - - 0.4
02/10:00am 4.1 -3.5 4.1 100 0.0 NNW 33 48 18 26 - - 0.4
02/09:32am 4.2 -3.3 4.2 100 0.0 NNW 33 52 18 28 - - 0.4
02/09:30am 4.1 -3.5 4.1 100 0.0 NW 33 50 18 27 - - 0.4
02/09:00am 4.0 -3.6 3.9 99 0.0 NW 33 54 18 29 - - 55.2
02/08:57am 4.1 -3.5 4.1 100 0.0 NNW 33 54 18 29 - - 55.2
02/08:30am 3.8 -3.6 3.8 100 0.0 NNW 32 46 17 25 - - 55.2
02/08:00am 3.7 -3.8 3.6 99 0.0 NNW 32 52 17 28 - - 55.2
02/07:54am 3.7 -3.4 3.6 99 0.0 NNW 30 52 16 28 - - 55.2
02/07:30am 3.5 -3.2 3.5 100 0.0 NNW 28 43 15 23 - - 55.2
02/07:20am 3.6 -3.1 3.5 99 0.0 NNW 28 46 15 25 - - 55.2
02/07:00am 3.8 -3.3 3.7 99 0.0 NNW 30 44 16 24 - - 55.2
02/06:47am 3.8 -2.9 3.7 99 0.0 NNW 28 46 15 25 - - 55.2
02/06:30am 3.8 -2.9 3.8 100 0.0 NNW 28 44 15 24 - - 55.2
02/06:00am 3.8 -2.5 3.8 100 0.0 NNW 26 37 14 20 - - 55.2
02/05:39am 3.9 -2.8 3.9 100 0.0 NNW 28 46 15 25 - - 55.2
02/05:30am 4.1 -3.5 4.1 100 0.0 NNW 33 48 18 26 - - 55.2
02/05:05am 4.2 -3.7 4.2 100 0.0 NW 35 65 19 35 - - 55.2
02/05:00am 4.0 -3.6 3.9 99 0.0 NNW 33 50 18 27 - - 55.2
02/04:30am 4.0 -3.4 4.0 100 0.0 NW 32 50 17 27 - - 55.2
02/04:04am 3.8 -3.3 3.7 99 0.0 NNW 30 48 16 26 - - 55.2
02/04:00am 3.7 -3.0 3.6 99 0.0 NNW 28 44 15 24 - - 55.2
02/03:46am 3.8 -2.9 3.7 99 0.0 NW 28 46 15 25 - - 55.2
02/03:30am 3.7 -3.0 3.6 99 0.0 NW 28 44 15 24 - - 55.0
02/03:00am 3.8 -2.9 3.7 99 0.0 NW 28 46 15 25 - - 54.4
02/02:30am 3.6 -3.5 3.5 99 0.0 NW 30 44 16 24 - - 53.6
02/02:10am 3.6 -3.5 3.5 99 0.0 NW 30 48 16 26 - - 52.6
02/02:00am 3.4 -4.1 3.3 99 0.0 NW 32 48 17 26 - - 52.0
02/01:37am 3.6 -3.1 3.5 99 0.0 NW 28 46 15 25 - - 51.2
02/01:30am 3.4 -3.0 3.3 99 0.0 NW 26 41 14 22 - - 50.6
02/01:08am 3.4 -3.7 3.3 99 0.0 NNW 30 57 16 31 - - 49.6
02/01:00am 3.4 -3.0 3.3 99 0.0 NNW 26 39 14 21 - - 49.4
02/12:30am 3.0 -3.8 2.9 99 0.0 NNW 28 44 15 24 - - 48.0
02/12:00am 2.8 -4.1 2.7 99 0.0 N 28 39 15 21 - - 46.4
 
Date/Time
EST
Tmp

°C
App
Tmp
°C
Dew
Point
°C
Rel
Hum
%
Delta-T

°C
Wind Press
QNH
hPa
Press
MSL
hPa
Rain
since
9 am
mm
Dir
 
Spd
km/h
Gust
km/h
Spd
kts
Gust
kts
01/11:30pm 3.2 -1.9 3.1 99 0.0 NW 19 32 10 17 - - 45.4
01/11:00pm 3.3 -1.0 3.2 99 0.0 NNW 15 26 8 14 - - 43.8
01/10:30pm 3.3 -2.3 3.2 99 0.0 NNW 22 33 12 18 - - 42.8
01/10:00pm 3.4 -2.2 3.3 99 0.0 NNW 22 32 12 17 - - 40.2
01/09:30pm 3.6 -1.0 3.5 99 0.0 NNW 17 22 9 12 - - 39.6
01/09:00pm 3.9 -1.3 3.8 99 0.0 NNW 20 30 11 16 - - 38.6
01/08:30pm 3.9 -1.6 3.8 99 0.0 NNW 22 30 12 16 - - 37.2
01/08:00pm 4.0 -0.9 3.9 99 0.0 NW 19 24 10 13 - - 34.6
01/07:30pm 4.1 -2.5 4.0 99 0.0 NNW 28 39 15 21 - - 33.4
01/07:00pm 4.1 -1.0 4.0 99 0.0 NNW 20 32 11 17 - - 32.2
01/06:30pm 4.0 -1.5 3.9 99 0.0 NW 22 33 12 18 - - 30.6
01/06:00pm 3.8 -2.1 3.7 99 0.0 NW 24 33 13 18 - - 28.0
01/05:38pm 4.3 -2.3 4.2 99 0.0 NNW 28 46 15 25 - - 26.0
01/05:30pm 3.9 -2.4 3.8 99 0.0 NNW 26 41 14 22 - - 25.6
01/05:05pm 4.4 -2.6 4.3 99 0.0 NW 30 48 16 26 - - 23.0
01/05:00pm 4.2 -1.7 4.1 99 0.0 NW 24 37 13 20 - - 22.6
01/04:30pm 3.9 -4.5 3.8 99 0.0 NNW 37 59 20 32 - - 20.4
01/04:12pm 3.7 -3.0 3.6 99 0.0 NW 28 46 15 25 - - 19.4
01/04:00pm 4.0 -2.3 3.9 99 0.0 NNW 26 39 14 21 - - 18.2
01/03:30pm 3.4 -3.4 3.3 99 0.0 NNW 28 37 15 20 - - 16.8
01/03:00pm 2.9 -2.4 2.8 99 0.0 NW 20 28 11 15 - - 15.0
01/02:30pm 2.6 -3.5 2.5 99 0.0 NNW 24 35 13 19 - - 12.8
01/02:16pm 2.6 -4.7 2.5 99 0.0 NW 30 48 16 26 - - 11.4
01/02:00pm 2.6 -5.1 2.5 99 0.0 NW 32 46 17 25 - - 10.2
01/01:41pm 2.6 -4.7 2.5 99 0.0 NNW 30 48 16 26 - - 8.8
01/01:30pm 2.7 -4.6 2.6 99 0.0 NNW 30 43 16 23 - - 7.8
01/01:00pm 2.8 -4.1 2.7 99 0.0 NW 28 46 15 25 - - 6.4
01/12:55pm 2.8 -4.1 2.7 99 0.0 NNW 28 46 15 25 - - 6.0
01/12:43pm 2.9 -4.9 2.8 99 0.0 NNW 33 46 18 25 - - 5.0
01/12:31pm 3.0 -5.9 2.9 99 0.0 NNW 39 57 21 31 - - 4.2
01/12:30pm 3.0 -5.5 2.9 99 0.0 NNW 37 54 20 29 - - 4.0
01/12:10pm 3.1 -5.0 3.0 99 0.0 NNW 35 54 19 29 - - 2.8
01/12:00pm 2.9 -5.3 2.8 99 0.0 NW 35 54 19 29 - - 1.6
01/11:56am 3.0 -4.8 2.9 99 0.0 NW 33 54 18 29 - - 1.4
01/11:43am 2.9 -5.7 2.8 99 0.0 NNW 37 65 20 35 - - 0.6
01/11:30am 3.3 -6.4 2.6 95 0.3 NNW 43 65 23 35 - - 0.2
01/11:02am 3.6 -3.9 3.5 99 0.0 NW 32 50 17 27 - - 0.2
01/11:00am 3.6 -4.1 3.5 99 0.0 NW 33 46 18 25 - - 0.2
01/10:30am 3.2 -6.1 3.1 99 0.0 NW 41 65 22 35 - - 0.2
01/10:00am 2.9 -7.0 2.8 99 0.0 NW 44 76 24 41 - - 0.2
01/09:47am 3.1 -7.5 3.0 99 0.0 NNW 48 78 26 42 - - 0.2
01/09:45am 3.1 -7.5 3.0 99 0.0 NNW 48 78 26 42 - - 0.2
01/09:43am 3.2 -7.8 3.1 99 0.0 NNW 50 82 27 44 - - 0.2
01/09:31am 3.2 -7.8 3.1 99 0.0 NW 50 83 27 45 - - 0.2
01/09:30am 3.3 -7.7 3.2 99 0.0 NW 50 83 27 45 - - 0.2
01/09:28am 3.2 -7.8 3.1 99 0.0 NW 50 83 27 45 - - 0.2
01/09:06am 3.5 -8.8 3.4 99 0.0 NNW 57 89 31 48 - - 0.2
01/09:00am 3.3 -8.4 3.2 99 0.0 NNW 54 76 29 41 - - 0.4
01/08:48am 3.2 -7.0 3.1 99 0.0 NNW 46 65 25 35 - - 0.2
01/08:42am 3.2 -6.6 3.1 99 0.0 NW 44 65 24 35 - - 0.2
01/08:37am 3.1 -6.6 3.0 99 0.0 NW 43 65 23 35 - - 0.2
01/08:30am 3.1 -6.6 3.0 99 0.0 NNW 43 59 23 32 - - 0.2
01/08:25am 3.1 -6.6 3.0 99 0.0 NNW 43 57 23 31 - - 0.2
01/08:19am 3.3 -6.4 2.6 95 0.3 NNW 43 61 23 33 - - 0.2
01/08:18am 3.4 -6.4 2.5 94 0.4 NNW 43 61 23 33 - - 0.2
01/08:17am 3.4 -6.4 2.5 94 0.4 NNW 43 61 23 33 - - 0.2
01/08:13am 3.4 -6.0 2.4 93 0.4 NNW 41 56 22 30 - - 0.2
01/08:03am 3.3 -6.7 2.3 93 0.4 NNW 44 63 24 34 - - 0.2
01/08:00am 3.3 -7.0 2.4 94 0.4 NNW 46 63 25 34 - - 0.2
01/07:30am 3.1 -7.9 3.0 99 0.0 NNW 50 74 27 40 - - 0.2
01/07:05am 2.7 -7.2 2.6 99 0.0 NNW 44 69 24 37 - - 0.2
01/07:03am 2.6 -7.3 2.5 99 0.0 NNW 44 65 24 35 - - 0.2
01/07:00am 2.6 -7.3 2.5 99 0.0 NNW 44 65 24 35 - - 0.2
01/06:56am 2.6 -7.7 2.5 99 0.0 NNW 46 69 25 37 - - 0.2
01/06:53am 2.6 -8.1 2.5 99 0.0 NNW 48 69 26 37 - - 0.2
01/06:39am 2.6 -7.2 2.5 99 0.0 NNW 43 63 23 34 - - 0.2
01/06:38am 2.7 -7.0 2.6 99 0.0 NNW 43 61 23 33 - - 0.2
01/06:30am 2.6 -7.3 2.5 99 0.0 N 44 72 24 39 - - 0.2
01/06:01am 2.6 -8.1 2.5 99 0.0 N 48 67 26 36 - - 0.2
01/06:00am 2.6 -8.5 2.5 99 0.0 N 50 67 27 36 - - 0.2
01/05:46am 2.6 -6.8 2.5 99 0.0 N 41 59 22 32 - - 0.2
01/05:39am 2.6 -6.4 2.5 99 0.0 NNW 39 57 21 31 - - 0.2
01/05:30am 2.5 -6.5 2.4 99 0.0 NW 39 59 21 32 - - 0.2
01/05:15am 2.5 -5.4 2.4 99 0.0 NNW 33 56 18 30 - - 0.2
01/05:09am 2.5 -5.2 2.4 99 0.0 NNW 32 48 17 26 - - 0.2
01/05:00am 2.4 -6.6 2.3 99 0.0 NW 39 57 21 31 - - 0.2
01/04:37am 2.4 -5.5 2.3 99 0.0 NNW 33 52 18 28 - - 0.2
01/04:30am 2.3 -6.4 2.2 99 0.0 NNW 37 54 20 29 - - 0.2
01/04:11am 2.3 -6.4 2.2 99 0.0 NW 37 57 20 31 - - 0.2
01/04:00am 2.1 -5.8 2.0 99 0.0 NNW 33 46 18 25 - - 0.2
01/03:30am 1.9 -6.8 1.8 99 0.0 NNW 37 52 20 28 - - 0.2
01/03:01am 1.8 -6.9 1.7 99 0.0 NW 37 56 20 30 - - 0.2
01/03:00am 1.8 -7.3 1.7 99 0.0 NW 39 56 21 30 - - 0.2
01/02:30am 1.6 -7.2 1.5 99 0.0 NW 37 56 20 30 - - 0.2
01/02:00am 1.4 -7.8 1.3 99 0.0 NW 39 57 21 31 - - 0.2
01/01:34am 1.2 -6.7 1.1 99 0.0 NW 32 52 17 28 - - 0.2
01/01:30am 0.9 -6.3 0.8 99 0.0 NW 28 43 15 23 - - 0.2
01/01:00am 0.8 -5.6 0.7 99 0.0 NW 24 37 13 20 - - 0.2
01/12:30am 0.8 -6.4 0.7 99 0.0 NW 28 43 15 23 - - 0.2
01/12:00am 0.7 -5.8 0.6 99 0.0 NW 24 32 13 17 - - 0.2
 
Date/Time
EST
Tmp

°C
App
Tmp
°C
Dew
Point
°C
Rel
Hum
%
Delta-T

°C
Wind Press
QNH
hPa
Press
MSL
hPa
Rain
since
9 am
mm
Dir
 
Spd
km/h
Gust
km/h
Spd
kts
Gust
kts
31/11:30pm 0.6 -5.9 0.5 99 0.0 NW 24 33 13 18 - - 0.2
31/11:00pm 0.5 -6.0 0.4 99 0.0 NW 24 43 13 23 - - 0.2
31/10:30pm 0.5 -5.6 0.4 99 0.0 NW 22 30 12 16 - - 0.2
31/10:00pm 0.3 -4.9 0.2 99 0.0 NNW 17 24 9 13 - - 0.2
31/09:30pm 0.4 -4.8 0.3 99 0.0 N 17 24 9 13 - - 0.2
31/09:00pm 0.1 -4.4 0.0 99 0.0 NNW 13 20 7 11 - - 0.2
31/08:30pm 0.2 -3.9 0.1 99 0.0 N 11 17 6 9 - - 0.2
31/08:00pm 0.5 -4.7 0.4 99 0.0 N 17 22 9 12 - - 0.2
31/07:30pm 0.9 -4.2 0.8 99 0.0 N 17 24 9 13 - - 0.2
31/07:00pm 1.1 -4.5 1.0 99 0.0 N 20 30 11 16 - - 0.2
31/06:30pm 1.3 -3.7 1.2 99 0.0 N 17 26 9 14 - - 0.2
31/06:00pm 1.9 -2.7 1.8 99 0.0 N 15 20 8 11 - - 0.2
31/05:30pm 2.3 -2.2 2.2 99 0.0 NNW 15 19 8 10 - - 0.2
31/05:00pm 3.1 -1.0 2.5 96 0.3 NNW 13 20 7 11 - - 0.2
31/04:30pm 4.3 -0.1 2.8 90 0.7 NW 15 20 8 11 - - 0.2
31/04:00pm 5.0 1.3 2.4 83 1.2 NW 11 15 6 8 - - 0.2
31/03:30pm 5.3 1.2 2.3 81 1.3 NNW 13 17 7 9 - - 0.2
31/03:00pm 5.9 2.0 3.2 83 1.2 NW 13 19 7 10 - - 0.2
31/02:30pm 4.7 0.7 2.6 86 0.9 NW 13 24 7 13 - - 0.2
31/02:00pm 5.2 0.4 2.4 82 1.3 NW 17 24 9 13 - - 0.2
31/01:30pm 4.8 1.1 2.2 83 1.2 NW 11 19 6 10 - - 0.2
31/01:00pm 3.6 -0.2 1.8 88 0.8 NW 11 19 6 10 - - 0.2
31/12:30pm 3.5 -0.8 1.2 85 1.0 NNW 13 20 7 11 - - 0.2
31/12:00pm 3.6 0.2 2.0 89 0.7 WNW 9 17 5 9 - - 0.2
31/11:30am 3.4 -0.1 3.3 99 0.0 NNW 11 20 6 11 - - 0.2
31/11:00am 2.8 -1.2 2.7 99 0.0 NW 13 20 7 11 - - 0.0
31/10:30am 1.7 -2.5 1.6 99 0.0 NW 13 20 7 11 - - 0.0
31/10:00am 1.3 -3.0 1.2 99 0.0 NNW 13 17 7 9 - - 0.0
31/09:30am 1.1 -3.2 1.0 99 0.0 NW 13 20 7 11 - - 0.0
31/09:00am 1.1 -3.2 1.0 99 0.0 WNW 13 20 7 11 - - 0.0
31/08:30am 0.6 -4.2 0.5 99 0.0 NW 15 22 8 12 - - 0.0

Latest Capital City Observations: Canberra | Sydney | Melbourne | Brisbane | Adelaide | Perth | Hobart | Darwin

Other Formats:

Comma delimited format used in spreadsheet applications
http://www.bom.gov.au/fwo/IDN60903/IDN60903.95916.axf

JavaScript Object Notation format (JSON) in row-major order
http://www.bom.gov.au/fwo/IDN60903/IDN60903.95916.json